Terminal Aerodrome Forecast
Issued by NWS

Home | Current Version | Previous Version | Text Only | Print | Product List | Glossary On
Versions: 1 2 3 4 5 6 7 8 9 10 11 12 13 14 15 16 17 18
000
FTUS45 KTFX 230500
TAFGTF
TAF
KGTF 230520Z 2306/2406 32008KT 6SM -RA BR SCT020 OVC035
     FM231000 23018KT P6SM SCT040 BKN180
     FM231900 24024G35KT P6SM SCT060 BKN150 PROB30 2320/2324 P6SM
      -SHRA BKN040
     FM240200 25015KT P6SM BKN150=

USA.gov is the U.S. government's official web portal to all federal, state and local government web resources and services.